createdAt,value
2022-11-12T00:00:33.626Z,15.95
2022-11-12T00:03:19.925Z,15.97
2022-11-12T00:06:05.740Z,15.95
2022-11-12T00:08:51.504Z,15.95
2022-11-12T00:11:37.050Z,15.94
2022-11-12T00:14:22.916Z,15.93
2022-11-12T00:17:08.733Z,15.91
2022-11-12T00:19:54.943Z,15.90
2022-11-12T00:22:40.632Z,15.90
2022-11-12T00:25:26.457Z,15.89
2022-11-12T00:28:12.150Z,15.87
2022-11-12T00:30:57.812Z,15.85
2022-11-12T00:33:43.805Z,15.84
2022-11-12T00:36:29.412Z,15.83
2022-11-12T00:39:15.095Z,15.82
2022-11-12T00:42:00.911Z,15.81
2022-11-12T00:44:46.613Z,15.79
2022-11-12T00:47:32.426Z,15.78
2022-11-12T00:50:17.989Z,15.78
2022-11-12T00:53:03.670Z,15.81
2022-11-12T00:55:49.199Z,15.85
2022-11-12T00:58:36.171Z,15.87
2022-11-12T01:01:22.968Z,15.85
2022-11-12T01:04:09.920Z,15.84
2022-11-12T01:06:55.786Z,15.80
2022-11-12T01:09:41.516Z,15.77
2022-11-12T01:12:27.365Z,15.75
2022-11-12T01:15:12.948Z,15.75
2022-11-12T01:17:58.793Z,15.71
2022-11-12T01:20:44.272Z,15.68
2022-11-12T01:23:33.442Z,15.67
2022-11-12T01:26:21.097Z,15.67
2022-11-12T01:29:07.200Z,15.65
2022-11-12T01:31:52.556Z,15.65
2022-11-12T01:34:38.168Z,15.64
2022-11-12T01:37:23.795Z,15.62
2022-11-12T01:40:10.133Z,15.59
2022-11-12T01:42:56.078Z,15.55
2022-11-12T01:45:46.847Z,15.52
2022-11-12T01:48:37.577Z,15.48
2022-11-12T01:51:31.397Z,15.49
2022-11-12T01:54:18.643Z,15.49
2022-11-12T01:57:04.851Z,15.47
2022-11-12T01:59:54.833Z,15.43
2022-11-12T02:02:41.039Z,15.39
2022-11-12T02:05:28.998Z,15.36
2022-11-12T02:08:15.279Z,15.32
2022-11-12T02:11:15.597Z,15.29
2022-11-12T02:14:01.598Z,15.31
2022-11-12T02:16:49.032Z,15.29
2022-11-12T02:19:37.630Z,15.31
2022-11-12T02:22:23.096Z,15.32
2022-11-12T02:25:14.924Z,15.32
2022-11-12T02:28:02.732Z,15.30
2022-11-12T02:30:49.842Z,15.24
2022-11-12T02:33:35.197Z,15.19
2022-11-12T02:36:21.871Z,15.11
2022-11-12T02:39:07.997Z,15.07
2022-11-12T02:41:53.716Z,15.02
2022-11-12T02:44:39.427Z,15.03
2022-11-12T02:47:25.190Z,15.03
2022-11-12T02:50:12.728Z,15.04
2022-11-12T02:52:58.441Z,15.06
2022-11-12T02:55:44.119Z,15.04
2022-11-12T02:58:30.332Z,15.01
2022-11-12T03:01:15.959Z,14.95
2022-11-12T03:04:01.737Z,14.92
2022-11-12T03:06:47.506Z,14.92
2022-11-12T03:09:33.205Z,14.94
2022-11-12T03:12:19.033Z,14.95
2022-11-12T03:15:05.091Z,14.93
2022-11-12T03:17:50.580Z,14.93
2022-11-12T03:20:36.206Z,14.91
2022-11-12T03:23:21.955Z,14.91
2022-11-12T03:26:08.022Z,14.91
2022-11-12T03:28:54.013Z,14.90
2022-11-12T03:31:39.662Z,14.91
2022-11-12T03:34:25.482Z,14.95
2022-11-12T03:37:11.257Z,14.96
2022-11-12T03:39:56.937Z,14.95
2022-11-12T03:42:50.355Z,14.90
2022-11-12T03:45:36.284Z,14.84
2022-11-12T03:48:22.153Z,14.81
2022-11-12T03:51:07.857Z,14.80
2022-11-12T03:53:53.597Z,14.84
2022-11-12T03:56:39.642Z,14.84
2022-11-12T03:59:25.244Z,14.81
2022-11-12T04:02:14.633Z,14.81
2022-11-12T04:05:19.238Z,14.80
2022-11-12T04:08:28.717Z,14.75
2022-11-12T04:11:16.583Z,14.70
2022-11-12T04:14:02.165Z,14.69
2022-11-12T04:17:06.199Z,14.71
2022-11-12T04:20:10.242Z,14.70
2022-11-12T04:22:55.941Z,14.71
2022-11-12T04:26:00.641Z,14.70
2022-11-12T04:29:21.604Z,14.64
2022-11-12T04:32:07.119Z,14.60
2022-11-12T04:34:53.341Z,14.61
2022-11-12T04:37:45.872Z,14.61
2022-11-12T04:40:51.293Z,14.64
2022-11-12T04:43:55.358Z,14.66
2022-11-12T04:46:41.195Z,14.69
2022-11-12T04:49:26.970Z,14.69
2022-11-12T04:52:12.639Z,14.70
2022-11-12T04:54:58.477Z,14.69
2022-11-12T04:57:44.081Z,14.67
2022-11-12T05:00:29.999Z,14.65
2022-11-12T05:03:15.987Z,14.59
2022-11-12T05:06:03.120Z,14.56
2022-11-12T05:08:48.399Z,14.53
2022-11-12T05:11:34.166Z,14.51
2022-11-12T05:14:19.600Z,14.48
2022-11-12T05:17:05.694Z,14.47
2022-11-12T05:19:51.127Z,14.43
2022-11-12T05:22:45.580Z,14.38
2022-11-12T05:25:34.559Z,14.36
2022-11-12T05:28:20.309Z,14.32
2022-11-12T05:31:06.097Z,14.34
2022-11-12T05:33:51.728Z,14.37
2022-11-12T05:36:37.408Z,14.38
2022-11-12T05:39:22.734Z,14.44
2022-11-12T05:42:13.774Z,14.50
2022-11-12T05:44:59.831Z,14.53
2022-11-12T05:47:45.550Z,14.57
2022-11-12T05:50:39.847Z,14.72
2022-11-12T05:53:37.185Z,15.08
2022-11-12T05:56:23.341Z,15.50
2022-11-12T05:59:10.822Z,15.93
2022-11-12T06:01:56.301Z,16.38
2022-11-12T06:04:42.174Z,16.82
2022-11-12T06:07:27.780Z,17.13
2022-11-12T06:10:19.103Z,17.15
2022-11-12T06:13:06.674Z,16.99
2022-11-12T06:15:54.395Z,16.99
2022-11-12T06:18:40.099Z,16.94
2022-11-12T06:21:27.950Z,17.02
2022-11-12T06:24:14.309Z,17.09
2022-11-12T06:26:59.719Z,17.17
2022-11-12T06:29:45.588Z,17.25
2022-11-12T06:32:31.673Z,17.34
2022-11-12T06:35:18.951Z,17.35
2022-11-12T06:38:04.699Z,17.55
2022-11-12T06:40:50.420Z,17.76
2022-11-12T06:43:36.388Z,17.91
2022-11-12T06:46:21.863Z,18.10
2022-11-12T06:49:07.337Z,18.34
2022-11-12T06:51:53.145Z,18.60
2022-11-12T06:54:38.792Z,18.90
2022-11-12T06:57:24.431Z,19.16
2022-11-12T07:00:12.025Z,19.41
2022-11-12T07:02:57.386Z,19.47
2022-11-12T07:05:43.641Z,19.38
2022-11-12T07:08:29.792Z,19.31
2022-11-12T07:11:17.186Z,19.24
2022-11-12T07:14:02.597Z,19.21
2022-11-12T07:16:48.057Z,19.23
2022-11-12T07:19:33.730Z,19.24
2022-11-12T07:22:19.588Z,19.20
2022-11-12T07:25:05.795Z,19.26
2022-11-12T07:27:53.497Z,19.39
2022-11-12T07:30:39.038Z,19.35
2022-11-12T07:33:25.064Z,19.42
2022-11-12T07:36:12.576Z,19.54
2022-11-12T07:38:58.557Z,19.58
2022-11-12T07:41:44.529Z,19.32
2022-11-12T07:44:29.950Z,19.33
2022-11-12T07:47:15.655Z,19.41
2022-11-12T07:50:01.128Z,19.52
2022-11-12T07:52:46.727Z,19.56
2022-11-12T07:55:32.412Z,19.66
2022-11-12T07:58:18.296Z,19.85
2022-11-12T08:01:21.315Z,20.14
2022-11-12T08:04:09.485Z,20.15
2022-11-12T08:06:55.234Z,20.08
2022-11-12T08:09:41.093Z,19.82
2022-11-12T08:12:26.712Z,19.83
2022-11-12T08:15:12.380Z,19.95
2022-11-12T08:17:57.792Z,20.03
2022-11-12T08:20:44.129Z,20.23
2022-11-12T08:23:30.318Z,20.42
2022-11-12T08:26:18.286Z,20.56
2022-11-12T08:29:08.281Z,20.79
2022-11-12T08:31:54.273Z,21.22
2022-11-12T08:34:41.567Z,21.45
2022-11-12T08:37:26.935Z,21.88
2022-11-12T08:40:13.097Z,22.21
2022-11-12T08:43:04.561Z,22.26
2022-11-12T08:45:50.406Z,22.37
2022-11-12T08:48:36.385Z,22.56
2022-11-12T08:51:21.992Z,22.55
2022-11-12T08:54:07.643Z,22.52
2022-11-12T08:56:53.413Z,22.34
2022-11-12T08:59:39.282Z,22.16
2022-11-12T09:02:24.996Z,22.12
2022-11-12T09:05:10.638Z,22.12
2022-11-12T09:08:07.420Z,21.75
2022-11-12T09:10:52.964Z,21.82
2022-11-12T09:13:38.872Z,21.67
2022-11-12T09:16:25.072Z,21.66
2022-11-12T09:19:10.510Z,21.53
2022-11-12T09:21:57.621Z,21.62
2022-11-12T09:24:43.381Z,21.51
2022-11-12T09:27:29.516Z,21.48
2022-11-12T09:30:16.659Z,21.49
2022-11-12T09:33:02.260Z,21.50
2022-11-12T09:35:48.392Z,21.30
2022-11-12T09:38:34.457Z,21.30
2022-11-12T09:41:28.676Z,21.27
2022-11-12T09:44:18.369Z,21.31
2022-11-12T09:47:27.372Z,21.30
2022-11-12T09:50:22.242Z,21.34
2022-11-12T09:53:40.264Z,21.22
2022-11-12T09:56:30.395Z,21.12
2022-11-12T09:59:16.704Z,21.14
2022-11-12T10:02:17.368Z,21.12
2022-11-12T10:05:26.796Z,21.53
2022-11-12T10:08:47.734Z,21.77
2022-11-12T10:12:32.169Z,22.02
2022-11-12T10:15:55.555Z,22.22
2022-11-12T10:19:06.140Z,22.38
2022-11-12T10:22:19.086Z,22.43
2022-11-12T10:25:16.553Z,22.13
2022-11-12T10:28:16.128Z,21.80
2022-11-12T10:31:21.963Z,22.06
2022-11-12T10:34:14.000Z,21.95
2022-11-12T10:37:07.723Z,22.09
2022-11-12T10:39:54.345Z,22.27
2022-11-12T10:43:00.420Z,22.69
2022-11-12T10:45:47.958Z,22.51
2022-11-12T10:48:35.015Z,22.74
2022-11-12T10:51:27.116Z,22.91
2022-11-12T10:54:42.158Z,22.85
2022-11-12T10:57:27.984Z,22.52
2022-11-12T11:00:13.489Z,22.28
2022-11-12T11:03:01.294Z,21.94
2022-11-12T11:05:59.065Z,21.80
2022-11-12T11:08:55.644Z,21.48
2022-11-12T11:11:52.553Z,21.49
2022-11-12T11:14:40.234Z,21.43
2022-11-12T11:17:26.015Z,21.51
2022-11-12T11:20:23.768Z,21.50
2022-11-12T11:23:29.097Z,21.28
2022-11-12T11:26:24.053Z,21.21
2022-11-12T11:29:26.790Z,21.02
2022-11-12T11:32:21.483Z,20.94
2022-11-12T11:35:26.286Z,20.70
2022-11-12T11:38:42.526Z,20.60
2022-11-12T11:41:53.371Z,20.68
2022-11-12T11:44:38.757Z,20.69
2022-11-12T11:47:59.808Z,20.57
2022-11-12T11:51:25.918Z,20.52
2022-11-12T11:54:58.409Z,20.44
2022-11-12T11:57:56.931Z,20.31
2022-11-12T12:01:33.932Z,20.39
2022-11-12T12:04:19.394Z,20.49
2022-11-12T12:07:26.281Z,20.43
2022-11-12T12:10:11.789Z,20.64
2022-11-12T12:13:08.849Z,20.68
2022-11-12T12:16:03.341Z,20.70
2022-11-12T12:19:09.243Z,20.71
2022-11-12T12:21:58.135Z,20.82
2022-11-12T12:25:11.660Z,20.95
2022-11-12T12:28:09.142Z,21.02
2022-11-12T12:31:01.460Z,21.13
2022-11-12T12:33:53.175Z,21.15
2022-11-12T12:36:41.318Z,21.12
2022-11-12T12:39:50.360Z,20.88
2022-11-12T12:42:43.838Z,20.69
2022-11-12T12:45:44.338Z,20.40
2022-11-12T12:48:34.180Z,20.22
2022-11-12T12:51:20.918Z,20.14
2022-11-12T12:54:35.658Z,20.02
2022-11-12T12:57:41.829Z,20.03
2022-11-12T13:00:41.573Z,20.11
2022-11-12T13:03:49.755Z,20.18
2022-11-12T13:06:37.584Z,20.22
2022-11-12T13:09:27.303Z,20.21
2022-11-12T13:12:16.649Z,20.21
2022-11-12T13:15:12.881Z,20.23
2022-11-12T13:17:58.723Z,20.26
2022-11-12T13:21:11.673Z,20.27
2022-11-12T13:24:09.092Z,20.32
2022-11-12T13:26:57.635Z,20.39
2022-11-12T13:29:44.988Z,20.43
2022-11-12T13:32:50.090Z,20.36
2022-11-12T13:35:38.006Z,20.28
2022-11-12T13:38:24.476Z,20.21
2022-11-12T13:41:40.456Z,20.13
2022-11-12T13:44:28.174Z,20.00
2022-11-12T13:47:20.481Z,19.95
2022-11-12T13:50:10.049Z,19.90
2022-11-12T13:52:56.250Z,19.94
2022-11-12T13:55:49.347Z,19.96
2022-11-12T13:58:36.317Z,19.98
2022-11-12T14:01:24.675Z,20.05
2022-11-12T14:04:24.203Z,20.06
2022-11-12T14:07:39.868Z,20.09
2022-11-12T14:10:47.848Z,20.06
2022-11-12T14:13:58.288Z,20.06
2022-11-12T14:16:56.040Z,20.02
2022-11-12T14:20:00.506Z,19.99
2022-11-12T14:22:47.139Z,19.99
2022-11-12T14:25:34.332Z,19.94
2022-11-12T14:28:32.871Z,19.91
2022-11-12T14:31:24.551Z,19.83
2022-11-12T14:34:27.608Z,19.80
2022-11-12T14:37:43.369Z,19.78
2022-11-12T14:40:35.517Z,19.75
2022-11-12T14:43:33.957Z,19.72
2022-11-12T14:46:23.829Z,19.67
2022-11-12T14:49:43.959Z,19.63
2022-11-12T14:52:36.383Z,19.58
2022-11-12T14:55:27.022Z,19.58
2022-11-12T14:58:15.837Z,19.56
2022-11-12T15:04:51.029Z,19.47
2022-11-12T15:07:53.196Z,19.43
2022-11-12T15:10:45.358Z,19.41
2022-11-12T15:13:39.013Z,19.37
2022-11-12T15:16:30.126Z,19.32
2022-11-12T15:19:26.005Z,19.29
2022-11-12T15:22:21.686Z,19.22
2022-11-12T15:25:28.937Z,19.20
2022-11-12T15:28:22.509Z,19.16
2022-11-12T15:31:16.224Z,19.19
2022-11-12T15:34:39.892Z,19.19
2022-11-12T15:37:28.623Z,19.19
2022-11-12T15:40:23.301Z,19.15
2022-11-12T15:43:30.257Z,19.12
2022-11-12T15:46:22.037Z,19.14
2022-11-12T15:49:14.316Z,19.10
2022-11-12T15:51:59.854Z,19.07
2022-11-12T15:54:46.229Z,19.09
2022-11-12T15:57:34.361Z,19.06
2022-11-12T16:00:25.536Z,19.09
2022-11-12T16:03:15.586Z,19.08
2022-11-12T16:06:08.345Z,19.06
2022-11-12T16:08:55.946Z,19.06
2022-11-12T16:11:41.552Z,19.07
2022-11-12T16:14:27.635Z,19.04
2022-11-12T16:17:18.427Z,19.07
2022-11-12T16:20:16.236Z,19.00
2022-11-12T16:23:02.556Z,18.87
2022-11-12T16:25:48.434Z,18.77
2022-11-12T16:28:35.488Z,18.65
2022-11-12T16:31:22.441Z,18.58
2022-11-12T16:34:08.080Z,18.55
2022-11-12T16:36:53.879Z,18.49
2022-11-12T16:39:39.804Z,18.47
2022-11-12T16:42:25.805Z,18.46
2022-11-12T16:45:35.063Z,18.41
2022-11-12T16:48:22.697Z,18.28
2022-11-12T16:51:16.830Z,18.19
2022-11-12T16:54:02.165Z,17.79
2022-11-12T16:56:48.367Z,17.34
2022-11-12T16:59:34.202Z,17.02
2022-11-12T17:02:19.963Z,16.79
2022-11-12T17:05:10.517Z,16.55
2022-11-12T17:07:58.150Z,16.40
2022-11-12T17:10:43.776Z,16.01
2022-11-12T17:13:30.047Z,16.02
2022-11-12T17:16:16.054Z,16.03
2022-11-12T17:19:02.527Z,16.02
2022-11-12T17:21:48.244Z,16.00
2022-11-12T17:24:33.912Z,15.94
2022-11-12T17:27:19.926Z,15.98
2022-11-12T17:30:06.133Z,15.98
2022-11-12T17:32:51.946Z,15.99
2022-11-12T17:35:37.877Z,15.98
2022-11-12T17:38:23.735Z,15.98
2022-11-12T17:41:10.803Z,15.96
2022-11-12T17:44:00.577Z,16.02
2022-11-12T17:46:48.356Z,16.01
2022-11-12T17:49:33.831Z,16.02
2022-11-12T17:52:21.043Z,16.05
2022-11-12T17:55:07.367Z,16.10
2022-11-12T17:57:52.706Z,16.13
2022-11-12T18:00:39.382Z,16.15
2022-11-12T18:03:25.527Z,16.22
2022-11-12T18:06:14.074Z,16.27
2022-11-12T18:09:15.563Z,16.26
2022-11-12T18:12:01.278Z,16.31
2022-11-12T18:14:47.186Z,16.30
2022-11-12T18:17:33.776Z,16.28
2022-11-12T18:20:20.073Z,16.34
2022-11-12T18:23:05.714Z,16.33
2022-11-12T18:25:51.700Z,16.35
2022-11-12T18:28:37.358Z,16.38
2022-11-12T18:31:24.137Z,16.44
2022-11-12T18:34:14.467Z,16.43
2022-11-12T18:37:00.593Z,16.45
2022-11-12T18:39:46.096Z,16.53
2022-11-12T18:42:32.060Z,16.61
2022-11-12T18:45:17.745Z,16.54
2022-11-12T18:48:04.899Z,16.58
2022-11-12T18:50:50.447Z,16.62
2022-11-12T18:53:37.576Z,16.71
2022-11-12T18:56:23.577Z,16.76
2022-11-12T18:59:12.026Z,16.81
2022-11-12T19:01:59.156Z,16.80
2022-11-12T19:04:46.188Z,16.88
2022-11-12T19:07:33.180Z,16.95
2022-11-12T19:10:19.001Z,16.84
2022-11-12T19:13:06.065Z,16.85
2022-11-12T19:15:51.943Z,16.87
2022-11-12T19:18:41.544Z,16.94
2022-11-12T19:21:27.877Z,16.90
2022-11-12T19:24:13.640Z,16.88
2022-11-12T19:26:59.583Z,16.82
2022-11-12T19:29:47.921Z,16.85
2022-11-12T19:32:33.667Z,16.84
2022-11-12T19:35:19.366Z,16.78
2022-11-12T19:38:05.360Z,16.80
2022-11-12T19:40:51.203Z,16.80
2022-11-12T19:43:39.610Z,16.74
2022-11-12T19:46:25.468Z,16.70
2022-11-12T19:49:11.719Z,16.61
2022-11-12T19:51:57.172Z,16.57
2022-11-12T19:54:42.946Z,16.60
2022-11-12T19:57:29.297Z,16.63
2022-11-12T20:00:15.453Z,16.64
2022-11-12T20:03:01.286Z,16.63
2022-11-12T20:05:47.205Z,16.57
2022-11-12T20:08:33.275Z,16.52
2022-11-12T20:11:19.187Z,16.47
2022-11-12T20:14:04.851Z,16.44
2022-11-12T20:16:51.526Z,16.40
2022-11-12T20:19:37.284Z,16.42
2022-11-12T20:22:26.641Z,16.42
2022-11-12T20:25:14.817Z,16.47
2022-11-12T20:28:00.903Z,16.47
2022-11-12T20:30:46.568Z,16.47
2022-11-12T20:33:32.297Z,16.46
2022-11-12T20:36:22.085Z,16.45
2022-11-12T20:39:08.370Z,16.45
2022-11-12T20:41:53.770Z,16.47
2022-11-12T20:44:39.585Z,16.49
2022-11-12T20:47:25.383Z,16.54
2022-11-12T20:50:11.175Z,16.56
2022-11-12T20:52:57.054Z,16.54
2022-11-12T20:55:42.989Z,16.54
2022-11-12T20:58:29.985Z,16.53
2022-11-12T21:01:18.519Z,16.56
2022-11-12T21:04:06.474Z,16.54
2022-11-12T21:06:51.937Z,16.53
2022-11-12T21:09:37.711Z,16.52
2022-11-12T21:12:23.801Z,16.50
2022-11-12T21:15:09.609Z,16.50
2022-11-12T21:17:55.169Z,16.50
2022-11-12T21:20:41.085Z,16.45
2022-11-12T21:23:30.411Z,16.41
2022-11-12T21:26:18.627Z,16.40
2022-11-12T21:29:05.551Z,16.35
2022-11-12T21:31:51.509Z,16.31
2022-11-12T21:34:37.790Z,16.30
2022-11-12T21:37:23.297Z,16.25
2022-11-12T21:40:09.604Z,16.23
2022-11-12T21:42:55.585Z,16.20
2022-11-12T21:45:46.736Z,16.16
2022-11-12T21:48:32.254Z,16.15
2022-11-12T21:51:20.484Z,16.15
2022-11-12T21:54:07.593Z,16.15
2022-11-12T21:56:53.516Z,16.15
2022-11-12T21:59:39.106Z,16.11
2022-11-12T22:02:24.966Z,16.06
2022-11-12T22:05:10.745Z,16.03
2022-11-12T22:07:56.610Z,16.03
2022-11-12T22:10:42.367Z,16.03
2022-11-12T22:13:27.975Z,16.02
2022-11-12T22:16:18.116Z,16.02
2022-11-12T22:19:03.706Z,16.01
2022-11-12T22:21:49.586Z,15.99
2022-11-12T22:24:35.320Z,15.98
2022-11-12T22:27:21.090Z,15.96
2022-11-12T22:30:07.451Z,16.00
2022-11-12T22:32:53.365Z,16.00
2022-11-12T22:35:39.173Z,16.01
2022-11-12T22:38:25.052Z,16.01
2022-11-12T22:41:13.952Z,15.99
2022-11-12T22:44:01.282Z,15.97
2022-11-12T22:46:47.139Z,15.94
2022-11-12T22:49:32.904Z,15.94
2022-11-12T22:52:18.576Z,15.91
2022-11-12T22:55:05.095Z,15.89
2022-11-12T22:57:50.624Z,15.85
2022-11-12T23:00:36.441Z,15.85
2022-11-12T23:03:22.416Z,15.87
2022-11-12T23:06:08.223Z,15.84
2022-11-12T23:08:55.328Z,15.83
2022-11-12T23:11:40.802Z,15.84
2022-11-12T23:14:26.496Z,15.79
2022-11-12T23:17:12.353Z,15.77
2022-11-12T23:19:58.111Z,15.77
2022-11-12T23:22:43.833Z,15.76
2022-11-12T23:25:30.099Z,15.74
2022-11-12T23:28:15.757Z,15.71
2022-11-12T23:31:02.428Z,15.71
2022-11-12T23:33:52.128Z,15.71
2022-11-12T23:36:37.541Z,15.68
2022-11-12T23:39:23.436Z,15.66
2022-11-12T23:42:09.202Z,15.60
2022-11-12T23:44:54.846Z,15.56
2022-11-12T23:47:40.757Z,15.51
2022-11-12T23:50:26.407Z,15.48
2022-11-12T23:53:12.289Z,15.46
2022-11-12T23:55:58.194Z,15.44
2022-11-12T23:58:44.193Z,15.41
